KBFI/BFI METAR and TAF weather

Enter ICAO airport designator
Station Type Date Time Source
KBFI METAR 2018/01/19 16:53 UTC NOAA

KBFI 191653Z 14008KT 10SM SCT055 OVC070 05/03 A2988 RMK AO2 RAB16E25 SLP118 P0000 T00500033


Station Type Date Time Source
KBFI Decoded METAR 2018/01/19 16:53 UTC NOAA

SEATTLE BOEING FIELD, WA, United States (KBFI) 47-33N 122-19W 4M
Jan 19, 2018 - 11:53 AM EST / 2018.01.19 1653 UTC
Wind: from the SE (140 degrees) at 9 MPH (8 KT):0
Visibility: 10 mile(s):0
Sky conditions: overcast
Precipitation last hour: A trace
Temperature: 41.0 F (5.0 C)
Dew Point: 37.9 F (3.3 C)
Relative Humidity: 88%
Pressure (altimeter): 29.88 in. Hg (1011 hPa)
ob: KBFI 191653Z 14008KT 10SM SCT055 OVC070 05/03 A2988 RMK AO2 RAB16E25 SLP118 P0000 T00500033
cycle: 17

Station Type Date Time Source
KBFI TAF 2018/01/19 12:22 UTC NOAA

TAF KBFI 191120Z 1912/2012 16008KT P6SM VCSH BKN050 BKN070
FM191300 16008KT P6SM -SHRA BKN050 BKN070
FM192300 17012KT P6SM -SHRA BKN030 OVC045
FM200300 17012KT P6SM -SHRA BKN016 OVC025


Example: see airport list